createdAt,value
2018-06-28T03:01:06.647Z,92.00
2018-06-28T03:02:07.150Z,104.00
2018-06-28T03:03:06.926Z,116.00
2018-06-28T03:04:07.010Z,128.00
2018-06-28T03:05:07.949Z,136.00
2018-06-28T03:06:08.134Z,152.00
2018-06-28T03:08:07.966Z,180.00
2018-06-28T03:09:08.562Z,196.00
2018-06-28T03:10:08.671Z,212.00
2018-06-28T03:12:09.179Z,244.00
2018-06-28T03:13:10.921Z,256.00
2018-06-28T03:14:06.560Z,276.00
2018-06-28T03:15:06.560Z,292.00
2018-06-28T03:16:06.787Z,316.00
2018-06-28T03:17:06.856Z,332.00
2018-06-28T03:18:07.044Z,356.00
2018-06-28T03:19:07.265Z,384.00
2018-06-28T03:20:07.490Z,408.00
2018-06-28T03:21:07.577Z,432.00
2018-06-28T03:22:07.810Z,464.00
2018-06-28T03:23:07.931Z,492.00
2018-06-28T03:24:08.143Z,520.00
2018-06-28T03:25:08.311Z,556.00
2018-06-28T03:26:08.507Z,580.00
2018-06-28T03:27:08.731Z,612.00
2018-06-28T03:28:08.815Z,648.00
2018-06-28T03:29:08.934Z,676.00
2018-06-28T03:30:09.158Z,708.00
2018-06-28T03:31:09.414Z,740.00
2018-06-28T03:32:09.405Z,772.00
2018-06-28T03:33:09.631Z,800.00
2018-06-28T03:34:09.823Z,840.00
2018-06-28T03:35:10.072Z,872.00
2018-06-28T03:36:10.195Z,900.00
2018-06-28T03:37:10.338Z,932.00
2018-06-28T03:38:10.582Z,964.00
2018-06-28T03:39:10.764Z,992.00
2018-06-28T03:40:10.909Z,1024.00
2018-06-28T03:41:11.096Z,1056.00
2018-06-28T03:42:11.261Z,1092.00
2018-06-28T03:43:11.464Z,1124.00
2018-06-28T03:44:11.664Z,1148.00
2018-06-28T03:45:11.815Z,1180.00
2018-06-28T03:46:11.918Z,1208.00
2018-06-28T03:47:12.187Z,1232.00
2018-06-28T03:48:12.376Z,1260.00
2018-06-28T03:49:12.534Z,1288.00
2018-06-28T03:50:12.741Z,1316.00
2018-06-28T03:51:12.918Z,1344.00
2018-06-28T03:52:13.187Z,1372.00
2018-06-28T03:53:13.378Z,1396.00
2018-06-28T03:54:13.425Z,1424.00
2018-06-28T03:55:13.639Z,1448.00
2018-06-28T03:56:13.819Z,1472.00
2018-06-28T03:57:14.047Z,1492.00
2018-06-28T03:58:14.173Z,1516.00
2018-06-28T03:59:14.278Z,1532.00
2018-06-28T04:00:14.466Z,1552.00
2018-06-28T04:01:14.787Z,1568.00
2018-06-28T04:02:14.801Z,1580.00
2018-06-28T04:03:14.938Z,1600.00
2018-06-28T04:04:15.120Z,1616.00
2018-06-28T04:05:15.223Z,1628.00
2018-06-28T04:06:15.450Z,1640.00
2018-06-28T04:07:15.576Z,1652.00
2018-06-28T04:08:15.746Z,1660.00
2018-06-28T04:09:15.951Z,1672.00
2018-06-28T04:10:16.080Z,1692.00
2018-06-28T04:11:16.267Z,1716.00
2018-06-28T04:12:16.449Z,1728.00
2018-06-28T04:13:16.672Z,1740.00
2018-06-28T04:14:17.187Z,1760.00
2018-06-28T04:15:17.594Z,1780.00
2018-06-28T04:16:17.179Z,1804.00
2018-06-28T04:17:17.431Z,1828.00
2018-06-28T04:18:17.677Z,1856.00
2018-06-28T04:19:17.683Z,1884.00
2018-06-28T04:20:18.339Z,1920.00
2018-06-28T04:21:18.195Z,1936.00
2018-06-28T04:22:18.413Z,1960.00
2018-06-28T04:23:18.751Z,1988.00
2018-06-28T04:24:18.775Z,2016.00
2018-06-28T04:25:18.857Z,2032.00
2018-06-28T04:26:19.004Z,2048.00
2018-06-28T04:27:19.117Z,2060.00
2018-06-28T04:28:19.407Z,2076.00
2018-06-28T04:29:19.580Z,2088.00
2018-06-28T04:30:19.791Z,2112.00
2018-06-28T04:31:20.100Z,2120.00
2018-06-28T04:32:20.235Z,2132.00
2018-06-28T04:33:20.403Z,2152.00
2018-06-28T04:34:20.559Z,2180.00
2018-06-28T04:35:20.688Z,2192.00
2018-06-28T04:36:20.775Z,2212.00
2018-06-28T04:37:21.095Z,2228.00
2018-06-28T04:38:21.256Z,2244.00
2018-06-28T04:39:21.402Z,2260.00
2018-06-28T04:40:22.270Z,2284.00
2018-06-28T04:41:21.706Z,2304.00
2018-06-28T04:42:21.857Z,2328.00
2018-06-28T04:43:22.019Z,2348.00
2018-06-28T04:44:22.248Z,2368.00
2018-06-28T04:45:22.486Z,2384.00
2018-06-28T04:46:22.648Z,2408.00
2018-06-28T04:47:22.727Z,2436.00
2018-06-28T04:48:22.921Z,2460.00
2018-06-28T04:49:23.029Z,2480.00
2018-06-28T04:50:23.189Z,2500.00
2018-06-28T04:51:23.461Z,2504.00
2018-06-28T04:52:24.010Z,2516.00
2018-06-28T04:53:23.842Z,2524.00
2018-06-28T04:54:24.089Z,2532.00
2018-06-28T04:55:24.314Z,2540.00
2018-06-28T04:56:24.443Z,2548.00
2018-06-28T04:57:25.104Z,2560.00
2018-06-28T04:58:24.742Z,2576.00
2018-06-28T04:59:29.984Z,2576.00
2018-06-28T05:00:25.155Z,2600.00
2018-06-28T05:01:29.062Z,2616.00
2018-06-28T05:06:05.444Z,2616.00
2018-06-28T05:07:22.374Z,2596.00
2018-06-28T05:08:17.023Z,2584.00
2018-06-28T05:09:17.079Z,2632.00
2018-06-28T05:10:19.598Z,2680.00
2018-06-28T05:11:14.177Z,2740.00
2018-06-28T05:14:18.472Z,2952.00
2018-06-28T05:15:23.958Z,3024.00
2018-06-28T05:23:28.004Z,3456.00
2018-06-28T05:24:28.426Z,3488.00
2018-06-28T05:38:40.352Z,3732.00
2018-06-28T05:45:19.889Z,3900.00
2018-06-28T05:58:47.382Z,4048.00
2018-06-28T05:59:47.525Z,4076.00
2018-06-28T06:00:52.169Z,4108.00
2018-06-28T06:02:01.057Z,4140.00
2018-06-28T06:02:47.749Z,4148.00
2018-06-28T06:03:52.587Z,4180.00
2018-06-28T06:04:46.287Z,4208.00
2018-06-28T06:05:46.351Z,4212.00
2018-06-28T06:06:46.437Z,4220.00
2018-06-28T06:07:46.605Z,4228.00
2018-06-28T06:08:46.792Z,4240.00
2018-06-28T06:09:47.073Z,4228.00
2018-06-28T06:10:47.090Z,4200.00
2018-06-28T06:11:47.217Z,4240.00
2018-06-28T06:12:47.495Z,4236.00
2018-06-28T06:13:47.619Z,4200.00
2018-06-28T06:14:47.818Z,4212.00
2018-06-28T06:15:59.126Z,4208.00
2018-06-28T06:25:22.679Z,4324.00
2018-06-28T06:26:22.192Z,4296.00
2018-06-28T06:31:38.059Z,4476.00
2018-06-28T06:32:44.640Z,4524.00
2018-06-28T06:36:19.052Z,4568.00
2018-06-28T08:03:12.069Z,7112.00
2018-06-28T09:21:04.919Z,14912.00
2018-06-28T09:22:02.103Z,14876.00
2018-06-28T09:38:41.731Z,17184.00
2018-06-28T09:52:05.575Z,15648.00
2018-06-28T09:52:54.389Z,15744.00
2018-06-28T12:53:22.776Z,16320.00
2018-06-28T12:56:51.957Z,12272.00
2018-06-28T15:36:10.492Z,19712.00
2018-06-28T15:53:29.507Z,9496.00
2018-06-28T15:54:20.209Z,9620.00
2018-06-28T15:55:21.215Z,11176.00
2018-06-28T16:01:27.366Z,11544.00
2018-06-28T17:11:47.089Z,1596.00
2018-06-28T17:12:46.791Z,1656.00
2018-06-28T17:13:47.157Z,1700.00
2018-06-28T17:14:49.873Z,1828.00
2018-06-28T17:15:55.652Z,2016.00
2018-06-28T17:16:57.645Z,2204.00
2018-06-28T17:17:57.538Z,2496.00
2018-06-28T17:18:48.151Z,2884.00
2018-06-28T17:19:47.734Z,3184.00
2018-06-28T17:20:49.151Z,3280.00
2018-06-28T17:21:48.843Z,3292.00
2018-06-28T17:22:46.552Z,3376.00
2018-06-28T17:23:46.626Z,3620.00
2018-06-28T17:24:46.678Z,3940.00
2018-06-28T17:25:49.371Z,4184.00
2018-06-28T17:26:58.402Z,4276.00
2018-06-28T17:27:50.294Z,4212.00
2018-06-28T17:28:51.202Z,4120.00
2018-06-28T17:30:00.246Z,4188.00
2018-06-28T17:30:50.386Z,4272.00
2018-06-28T17:41:23.231Z,2768.00
2018-06-28T17:57:42.333Z,2892.00
2018-06-28T17:58:42.774Z,2976.00
2018-06-28T17:59:42.322Z,3040.00
2018-06-28T18:00:44.595Z,3008.00
2018-06-28T18:01:42.711Z,3012.00
2018-06-28T18:02:44.173Z,3124.00
2018-06-28T18:03:48.443Z,3168.00
2018-06-28T18:04:42.715Z,3088.00
2018-06-28T18:05:43.472Z,2940.00
2018-06-28T18:06:43.863Z,2844.00
2018-06-28T18:07:41.506Z,2812.00
2018-06-28T18:08:41.372Z,2808.00
2018-06-28T18:09:41.462Z,2728.00
2018-06-28T18:10:42.450Z,2596.00
2018-06-28T18:11:41.911Z,2512.00
2018-06-28T18:12:42.120Z,2492.00
2018-06-28T18:13:42.190Z,2480.00
2018-06-28T18:14:42.352Z,2388.00
2018-06-28T18:15:42.525Z,2288.00
2018-06-28T18:16:42.805Z,2168.00
2018-06-28T18:17:42.922Z,2016.00
2018-06-28T18:18:43.257Z,1772.00
2018-06-28T18:19:43.418Z,1464.00
2018-06-28T18:20:43.912Z,1192.00
2018-06-28T18:21:44.014Z,948.00
2018-06-28T18:22:44.026Z,764.00
2018-06-28T18:23:44.243Z,628.00
2018-06-28T18:24:44.512Z,532.00
2018-06-28T18:25:44.662Z,476.00
2018-06-28T18:26:44.819Z,440.00
2018-06-28T18:27:45.051Z,424.00
2018-06-28T18:28:45.216Z,420.00
2018-06-28T18:29:45.567Z,420.00
2018-06-28T18:30:45.681Z,416.00
2018-06-28T18:31:45.869Z,388.00
2018-06-28T18:32:45.989Z,372.00
2018-06-28T18:33:46.216Z,356.00
2018-06-28T18:34:47.136Z,344.00
2018-06-28T18:35:47.741Z,328.00
2018-06-28T18:36:47.023Z,312.00
2018-06-28T18:37:47.022Z,300.00
2018-06-28T18:38:47.049Z,300.00
2018-06-28T18:39:47.144Z,296.00
2018-06-28T18:40:47.263Z,284.00
2018-06-28T18:41:48.092Z,272.00
2018-06-28T18:42:47.709Z,264.00
2018-06-28T18:43:47.960Z,256.00
2018-06-28T18:44:47.823Z,252.00
2018-06-28T18:45:50.594Z,244.00
2018-06-28T18:46:48.033Z,236.00
2018-06-28T18:47:48.340Z,232.00
2018-06-28T18:48:48.441Z,224.00
2018-06-28T18:49:48.576Z,216.00
2018-06-28T18:50:49.824Z,212.00
2018-06-28T18:51:49.170Z,212.00
2018-06-28T18:52:49.344Z,212.00
2018-06-28T18:53:49.494Z,216.00
2018-06-28T18:54:49.631Z,228.00
2018-06-28T18:55:49.849Z,240.00
2018-06-28T18:56:49.952Z,256.00
2018-06-28T18:57:51.531Z,268.00
2018-06-28T18:58:50.795Z,288.00
2018-06-28T18:59:50.961Z,312.00
2018-06-28T19:00:50.678Z,340.00
2018-06-28T19:01:50.922Z,368.00
2018-06-28T19:02:51.152Z,384.00
2018-06-28T19:03:51.719Z,388.00
2018-06-28T19:04:51.741Z,372.00
2018-06-28T19:05:52.426Z,344.00
2018-06-28T19:06:51.766Z,308.00
2018-06-28T19:07:52.037Z,276.00
2018-06-28T19:08:52.076Z,236.00
2018-06-28T19:09:52.584Z,204.00
2018-06-28T19:10:52.724Z,176.00
2018-06-28T19:11:52.609Z,160.00
2018-06-28T19:12:52.946Z,152.00
2018-06-28T19:13:52.917Z,148.00
2018-06-28T19:14:53.162Z,152.00
2018-06-28T19:15:53.367Z,168.00
2018-06-28T19:16:53.516Z,192.00
2018-06-28T19:17:53.686Z,228.00
2018-06-28T19:18:53.987Z,256.00
2018-06-28T19:19:54.035Z,272.00
2018-06-28T19:20:54.271Z,268.00
2018-06-28T19:21:54.423Z,252.00
2018-06-28T19:22:54.604Z,228.00
2018-06-28T19:23:54.799Z,204.00
2018-06-28T19:24:54.928Z,176.00
2018-06-28T19:25:55.205Z,152.00
2018-06-28T19:26:55.347Z,136.00
2018-06-28T19:27:55.535Z,128.00
2018-06-28T19:28:55.697Z,124.00
2018-06-28T19:29:55.870Z,116.00
2018-06-28T19:30:56.110Z,108.00
2018-06-28T19:31:56.414Z,96.00
2018-06-28T19:32:56.517Z,84.00
2018-06-28T19:33:56.641Z,76.00
2018-06-28T19:34:56.794Z,68.00
2018-06-28T19:35:56.972Z,64.00
2018-06-28T19:36:57.600Z,60.00
2018-06-28T19:37:57.405Z,56.00
2018-06-28T19:38:57.833Z,52.00
2018-06-28T19:39:58.767Z,48.00
2018-06-28T19:40:58.127Z,44.00
2018-06-28T19:41:59.638Z,44.00
2018-06-28T19:42:58.717Z,40.00
2018-06-28T19:43:59.337Z,36.00
2018-06-28T19:44:58.775Z,36.00
2018-06-28T19:45:59.650Z,32.00
2018-06-28T19:47:00.071Z,24.00
2018-06-28T19:47:59.501Z,28.00
2018-06-28T19:48:59.913Z,24.00
2018-06-28T19:49:59.815Z,24.00
2018-06-28T19:51:00.964Z,24.00
2018-06-28T19:52:01.881Z,20.00
2018-06-28T19:54:46.856Z,16.00
2018-06-28T19:55:05.882Z,16.00
2018-06-28T19:56:26.226Z,16.00
2018-06-28T19:57:05.662Z,12.00
2018-06-28T19:58:05.607Z,16.00
2018-06-28T19:59:04.325Z,12.00
2018-06-28T20:00:01.713Z,12.00
2018-06-28T20:01:01.907Z,12.00
2018-06-28T20:02:01.893Z,12.00
2018-06-28T20:03:02.215Z,8.00
2018-06-28T20:04:02.465Z,8.00
2018-06-28T20:05:02.568Z,4.00
2018-06-28T20:06:02.832Z,4.00
2018-06-28T20:07:02.962Z,8.00
2018-06-28T20:08:03.021Z,4.00
2018-06-28T20:09:05.091Z,4.00
2018-06-28T20:10:04.240Z,4.00
2018-06-28T20:11:03.946Z,4.00
2018-06-28T20:12:04.148Z,4.00
2018-06-28T20:13:04.126Z,0.00
2018-06-28T20:14:11.891Z,4.00
2018-06-28T20:15:06.042Z,4.00
2018-06-28T20:16:04.685Z,0.00
2018-06-28T20:17:04.851Z,0.00
2018-06-28T20:18:05.016Z,0.00
2018-06-28T20:19:16.236Z,4.00
2018-06-28T20:22:13.130Z,0.00
2018-06-28T20:23:17.831Z,0.00
2018-06-28T20:24:33.440Z,0.00
2018-06-28T20:25:17.126Z,0.00
2018-06-28T20:26:15.893Z,0.00
2018-06-28T20:28:19.159Z,0.00
2018-06-28T20:30:16.547Z,0.00
2018-06-28T20:31:17.501Z,0.00
2018-06-28T20:32:14.375Z,0.00
2018-06-28T20:33:15.674Z,0.00
2018-06-28T20:37:32.262Z,0.00
2018-06-28T20:38:31.576Z,0.00
2018-06-28T20:39:30.869Z,0.00
2018-06-28T20:42:23.001Z,0.00
2018-06-28T20:44:03.915Z,0.00
2018-06-28T20:45:38.957Z,0.00
2018-06-28T20:48:07.827Z,0.00
2018-06-28T20:50:10.845Z,0.00
2018-06-28T20:51:10.063Z,0.00
2018-06-28T20:52:12.562Z,0.00
2018-06-28T20:53:11.904Z,0.00
2018-06-28T20:54:08.825Z,0.00
2018-06-28T20:55:11.559Z,0.00
2018-06-28T20:56:10.289Z,0.00
2018-06-28T20:57:08.740Z,0.00
2018-06-28T20:58:09.816Z,0.00
2018-06-28T20:59:09.712Z,0.00
2018-06-28T21:01:10.610Z,0.00
2018-06-28T21:02:11.183Z,0.00
2018-06-28T21:03:09.710Z,0.00
2018-06-28T21:04:10.136Z,0.00
2018-06-28T21:05:12.127Z,0.00
2018-06-28T21:06:10.930Z,0.00
2018-06-28T21:07:14.372Z,0.00
2018-06-28T21:08:11.870Z,0.00
2018-06-28T21:09:13.700Z,0.00
2018-06-28T21:10:11.823Z,0.00
2018-06-28T21:11:11.728Z,0.00
2018-06-28T21:12:14.581Z,0.00
2018-06-28T21:13:10.652Z,0.00
2018-06-28T21:14:09.247Z,0.00
2018-06-28T21:15:09.418Z,0.00
2018-06-28T21:16:09.528Z,0.00
2018-06-28T21:17:09.795Z,0.00
2018-06-28T21:18:09.826Z,0.00
2018-06-28T21:19:10.135Z,0.00
2018-06-28T21:20:11.247Z,0.00
2018-06-28T21:21:10.585Z,0.00
2018-06-28T21:22:10.687Z,0.00
2018-06-28T21:23:10.953Z,0.00
2018-06-28T21:24:11.002Z,0.00
2018-06-28T21:25:11.216Z,0.00
2018-06-28T21:26:11.479Z,0.00
2018-06-28T21:27:11.678Z,0.00
2018-06-28T21:28:11.852Z,0.00
2018-06-28T21:29:12.100Z,0.00
2018-06-28T21:30:12.232Z,0.00
2018-06-28T21:31:12.619Z,0.00
2018-06-28T21:32:12.741Z,0.00
2018-06-28T21:33:12.995Z,0.00
2018-06-28T21:34:13.185Z,0.00
2018-06-28T21:35:13.339Z,0.00
2018-06-28T21:36:13.480Z,0.00
2018-06-28T21:37:13.671Z,0.00
2018-06-28T21:38:13.764Z,0.00
2018-06-28T21:39:14.041Z,0.00
2018-06-28T21:40:14.128Z,0.00
2018-06-28T21:41:14.279Z,0.00
2018-06-28T21:42:14.615Z,0.00
2018-06-28T21:43:14.753Z,0.00
2018-06-28T21:44:14.919Z,0.00
2018-06-28T21:45:15.096Z,0.00
2018-06-28T21:46:15.256Z,0.00
2018-06-28T21:47:15.450Z,0.00
2018-06-28T21:48:15.579Z,0.00
2018-06-28T21:49:15.773Z,0.00
